sensor_id;sensor_type;location;lat;lon;timestamp;P1;durP1;ratioP1;P2;durP2;ratioP2
8183;SDS011;4133;48.752;9.088;2024-01-15T00:00:41;6.00;;;2.23;;
8183;SDS011;4133;48.752;9.088;2024-01-15T00:03:08;2.53;;;1.97;;
8183;SDS011;4133;48.752;9.088;2024-01-15T00:05:34;7.40;;;4.10;;
8183;SDS011;4133;48.752;9.088;2024-01-15T00:08:00;7.10;;;3.30;;
8183;SDS011;4133;48.752;9.088;2024-01-15T00:10:26;4.33;;;2.17;;
8183;SDS011;4133;48.752;9.088;2024-01-15T00:12:52;5.83;;;2.67;;
8183;SDS011;4133;48.752;9.088;2024-01-15T00:15:19;5.23;;;2.97;;
8183;SDS011;4133;48.752;9.088;2024-01-15T00:17:45;6.50;;;3.43;;
8183;SDS011;4133;48.752;9.088;2024-01-15T00:20:11;4.13;;;2.93;;
8183;SDS011;4133;48.752;9.088;2024-01-15T00:22:37;4.40;;;2.37;;
8183;SDS011;4133;48.752;9.088;2024-01-15T00:25:03;4.63;;;3.20;;
8183;SDS011;4133;48.752;9.088;2024-01-15T00:27:29;5.17;;;2.83;;
8183;SDS011;4133;48.752;9.088;2024-01-15T00:29:55;3.57;;;2.23;;
8183;SDS011;4133;48.752;9.088;2024-01-15T00:32:21;5.83;;;2.93;;
8183;SDS011;4133;48.752;9.088;2024-01-15T00:34:47;5.10;;;3.40;;
8183;SDS011;4133;48.752;9.088;2024-01-15T00:37:13;3.60;;;2.13;;
8183;SDS011;4133;48.752;9.088;2024-01-15T00:39:39;3.33;;;2.00;;
8183;SDS011;4133;48.752;9.088;2024-01-15T00:42:05;3.90;;;2.47;;
8183;SDS011;4133;48.752;9.088;2024-01-15T00:44:31;7.23;;;2.87;;
8183;SDS011;4133;48.752;9.088;2024-01-15T00:46:57;4.20;;;2.73;;
8183;SDS011;4133;48.752;9.088;2024-01-15T00:49:23;5.03;;;2.27;;
8183;SDS011;4133;48.752;9.088;2024-01-15T00:51:49;3.23;;;1.90;;
8183;SDS011;4133;48.752;9.088;2024-01-15T00:54:16;3.23;;;2.37;;
8183;SDS011;4133;48.752;9.088;2024-01-15T00:56:42;5.30;;;2.70;;
8183;SDS011;4133;48.752;9.088;2024-01-15T00:59:08;4.77;;;2.60;;
8183;SDS011;4133;48.752;9.088;2024-01-15T01:01:35;3.70;;;2.40;;
8183;SDS011;4133;48.752;9.088;2024-01-15T01:04:02;7.20;;;3.20;;
8183;SDS011;4133;48.752;9.088;2024-01-15T01:06:28;4.37;;;2.53;;
8183;SDS011;4133;48.752;9.088;2024-01-15T01:08:54;3.77;;;2.00;;
8183;SDS011;4133;48.752;9.088;2024-01-15T01:11:20;6.67;;;2.90;;
8183;SDS011;4133;48.752;9.088;2024-01-15T01:13:46;3.30;;;2.90;;
8183;SDS011;4133;48.752;9.088;2024-01-15T01:16:12;6.37;;;2.30;;
8183;SDS011;4133;48.752;9.088;2024-01-15T01:18:38;4.83;;;2.57;;
8183;SDS011;4133;48.752;9.088;2024-01-15T01:21:04;4.20;;;2.87;;
8183;SDS011;4133;48.752;9.088;2024-01-15T01:23:30;4.40;;;2.60;;
8183;SDS011;4133;48.752;9.088;2024-01-15T01:25:56;3.93;;;2.40;;
8183;SDS011;4133;48.752;9.088;2024-01-15T01:28:22;3.27;;;2.03;;
8183;SDS011;4133;48.752;9.088;2024-01-15T01:30:48;2.30;;;1.63;;
8183;SDS011;4133;48.752;9.088;2024-01-15T01:33:15;4.40;;;2.43;;
8183;SDS011;4133;48.752;9.088;2024-01-15T01:35:41;4.27;;;2.00;;
8183;SDS011;4133;48.752;9.088;2024-01-15T01:38:08;5.87;;;2.63;;
8183;SDS011;4133;48.752;9.088;2024-01-15T01:40:34;1.70;;;1.60;;
8183;SDS011;4133;48.752;9.088;2024-01-15T01:43:00;4.97;;;2.57;;
8183;SDS011;4133;48.752;9.088;2024-01-15T01:45:28;5.00;;;2.80;;
8183;SDS011;4133;48.752;9.088;2024-01-15T01:47:54;6.67;;;2.47;;
8183;SDS011;4133;48.752;9.088;2024-01-15T01:50:20;2.00;;;1.80;;
8183;SDS011;4133;48.752;9.088;2024-01-15T01:52:46;3.67;;;1.90;;
8183;SDS011;4133;48.752;9.088;2024-01-15T01:55:12;4.07;;;2.53;;
8183;SDS011;4133;48.752;9.088;2024-01-15T01:57:38;3.43;;;2.50;;
8183;SDS011;4133;48.752;9.088;2024-01-15T02:00:07;6.87;;;2.50;;
8183;SDS011;4133;48.752;9.088;2024-01-15T02:02:33;3.77;;;2.60;;
8183;SDS011;4133;48.752;9.088;2024-01-15T02:05:00;4.33;;;2.90;;
8183;SDS011;4133;48.752;9.088;2024-01-15T02:07:26;2.47;;;2.10;;
8183;SDS011;4133;48.752;9.088;2024-01-15T02:09:52;3.40;;;2.30;;
8183;SDS011;4133;48.752;9.088;2024-01-15T02:12:18;3.50;;;1.60;;
8183;SDS011;4133;48.752;9.088;2024-01-15T02:14:44;6.37;;;2.27;;
8183;SDS011;4133;48.752;9.088;2024-01-15T02:17:10;5.17;;;2.50;;
8183;SDS011;4133;48.752;9.088;2024-01-15T02:19:36;5.63;;;2.77;;
8183;SDS011;4133;48.752;9.088;2024-01-15T02:22:04;5.03;;;2.20;;
8183;SDS011;4133;48.752;9.088;2024-01-15T02:24:30;5.30;;;2.80;;
8183;SDS011;4133;48.752;9.088;2024-01-15T02:26:56;5.27;;;2.67;;
8183;SDS011;4133;48.752;9.088;2024-01-15T02:29:22;6.70;;;2.90;;
8183;SDS011;4133;48.752;9.088;2024-01-15T02:31:48;7.10;;;3.50;;
8183;SDS011;4133;48.752;9.088;2024-01-15T02:34:14;3.70;;;1.70;;
8183;SDS011;4133;48.752;9.088;2024-01-15T02:36:40;4.30;;;2.17;;
8183;SDS011;4133;48.752;9.088;2024-01-15T02:39:06;3.27;;;2.50;;
8183;SDS011;4133;48.752;9.088;2024-01-15T02:41:32;3.13;;;1.83;;
8183;SDS011;4133;48.752;9.088;2024-01-15T02:43:58;4.20;;;2.63;;
8183;SDS011;4133;48.752;9.088;2024-01-15T02:46:24;3.37;;;2.07;;
8183;SDS011;4133;48.752;9.088;2024-01-15T02:48:50;6.20;;;2.80;;
8183;SDS011;4133;48.752;9.088;2024-01-15T02:51:16;3.13;;;2.17;;
8183;SDS011;4133;48.752;9.088;2024-01-15T02:53:42;4.20;;;2.17;;
8183;SDS011;4133;48.752;9.088;2024-01-15T02:56:08;4.13;;;2.57;;
8183;SDS011;4133;48.752;9.088;2024-01-15T02:58:34;6.07;;;2.53;;
8183;SDS011;4133;48.752;9.088;2024-01-15T03:01:00;5.63;;;1.80;;
8183;SDS011;4133;48.752;9.088;2024-01-15T03:03:26;1.63;;;1.53;;
8183;SDS011;4133;48.752;9.088;2024-01-15T03:05:52;4.43;;;2.80;;
8183;SDS011;4133;48.752;9.088;2024-01-15T03:08:18;7.47;;;2.33;;
8183;SDS011;4133;48.752;9.088;2024-01-15T03:10:44;6.03;;;1.87;;
8183;SDS011;4133;48.752;9.088;2024-01-15T03:13:10;3.70;;;2.17;;
8183;SDS011;4133;48.752;9.088;2024-01-15T03:15:36;3.70;;;2.07;;
8183;SDS011;4133;48.752;9.088;2024-01-15T03:18:01;4.63;;;2.47;;
8183;SDS011;4133;48.752;9.088;2024-01-15T03:20:27;3.47;;;2.63;;
8183;SDS011;4133;48.752;9.088;2024-01-15T03:22:53;4.63;;;2.53;;
8183;SDS011;4133;48.752;9.088;2024-01-15T03:25:19;5.47;;;2.87;;
8183;SDS011;4133;48.752;9.088;2024-01-15T03:27:45;6.43;;;3.10;;
8183;SDS011;4133;48.752;9.088;2024-01-15T03:30:12;4.87;;;2.27;;
8183;SDS011;4133;48.752;9.088;2024-01-15T03:32:38;5.53;;;2.60;;
8183;SDS011;4133;48.752;9.088;2024-01-15T03:35:04;4.50;;;2.47;;
8183;SDS011;4133;48.752;9.088;2024-01-15T03:37:30;4.40;;;2.80;;
8183;SDS011;4133;48.752;9.088;2024-01-15T03:39:56;3.17;;;1.93;;
8183;SDS011;4133;48.752;9.088;2024-01-15T03:42:22;3.57;;;2.80;;
8183;SDS011;4133;48.752;9.088;2024-01-15T03:44:48;6.83;;;2.57;;
8183;SDS011;4133;48.752;9.088;2024-01-15T03:47:14;3.73;;;2.33;;
8183;SDS011;4133;48.752;9.088;2024-01-15T03:49:40;4.07;;;2.50;;
8183;SDS011;4133;48.752;9.088;2024-01-15T03:52:06;2.67;;;2.10;;
8183;SDS011;4133;48.752;9.088;2024-01-15T03:54:32;3.50;;;2.23;;
8183;SDS011;4133;48.752;9.088;2024-01-15T03:56:58;3.50;;;2.50;;
8183;SDS011;4133;48.752;9.088;2024-01-15T03:59:24;5.47;;;2.97;;
8183;SDS011;4133;48.752;9.088;2024-01-15T04:01:50;5.60;;;2.83;;
8183;SDS011;4133;48.752;9.088;2024-01-15T04:04:17;5.93;;;3.13;;
8183;SDS011;4133;48.752;9.088;2024-01-15T04:06:43;3.47;;;1.77;;
8183;SDS011;4133;48.752;9.088;2024-01-15T04:09:09;2.97;;;2.17;;
8183;SDS011;4133;48.752;9.088;2024-01-15T04:11:35;3.33;;;1.97;;
8183;SDS011;4133;48.752;9.088;2024-01-15T04:14:01;2.97;;;2.40;;
8183;SDS011;4133;48.752;9.088;2024-01-15T04:16:27;3.90;;;2.33;;
8183;SDS011;4133;48.752;9.088;2024-01-15T04:18:53;4.93;;;1.70;;
8183;SDS011;4133;48.752;9.088;2024-01-15T04:21:19;3.33;;;2.40;;
8183;SDS011;4133;48.752;9.088;2024-01-15T04:23:45;4.13;;;2.00;;
8183;SDS011;4133;48.752;9.088;2024-01-15T04:26:11;7.07;;;2.17;;
8183;SDS011;4133;48.752;9.088;2024-01-15T04:28:37;4.57;;;2.63;;
8183;SDS011;4133;48.752;9.088;2024-01-15T04:31:03;2.50;;;2.17;;
8183;SDS011;4133;48.752;9.088;2024-01-15T04:33:29;4.63;;;2.43;;
8183;SDS011;4133;48.752;9.088;2024-01-15T04:35:55;4.80;;;2.43;;
8183;SDS011;4133;48.752;9.088;2024-01-15T04:38:21;4.80;;;2.93;;
8183;SDS011;4133;48.752;9.088;2024-01-15T04:40:47;4.93;;;2.57;;
8183;SDS011;4133;48.752;9.088;2024-01-15T04:43:13;3.17;;;2.23;;
8183;SDS011;4133;48.752;9.088;2024-01-15T04:45:39;3.20;;;2.20;;
8183;SDS011;4133;48.752;9.088;2024-01-15T04:48:05;2.93;;;1.80;;
8183;SDS011;4133;48.752;9.088;2024-01-15T04:50:31;5.50;;;3.07;;
8183;SDS011;4133;48.752;9.088;2024-01-15T04:52:57;4.00;;;3.03;;
8183;SDS011;4133;48.752;9.088;2024-01-15T04:55:23;2.17;;;1.97;;
8183;SDS011;4133;48.752;9.088;2024-01-15T04:57:49;1.97;;;1.67;;
8183;SDS011;4133;48.752;9.088;2024-01-15T05:00:15;2.93;;;1.80;;
8183;SDS011;4133;48.752;9.088;2024-01-15T05:02:41;3.37;;;2.27;;
8183;SDS011;4133;48.752;9.088;2024-01-15T05:05:07;3.73;;;2.20;;
8183;SDS011;4133;48.752;9.088;2024-01-15T05:07:33;5.00;;;2.33;;
8183;SDS011;4133;48.752;9.088;2024-01-15T05:09:59;6.50;;;2.60;;
8183;SDS011;4133;48.752;9.088;2024-01-15T05:12:25;3.23;;;1.93;;
8183;SDS011;4133;48.752;9.088;2024-01-15T05:14:51;7.57;;;2.90;;
8183;SDS011;4133;48.752;9.088;2024-01-15T05:17:17;3.13;;;2.00;;
8183;SDS011;4133;48.752;9.088;2024-01-15T05:19:43;3.20;;;2.57;;
8183;SDS011;4133;48.752;9.088;2024-01-15T05:22:09;4.33;;;2.10;;
8183;SDS011;4133;48.752;9.088;2024-01-15T05:24:34;2.80;;;2.50;;
8183;SDS011;4133;48.752;9.088;2024-01-15T05:27:00;3.97;;;2.17;;
8183;SDS011;4133;48.752;9.088;2024-01-15T05:29:26;3.70;;;1.93;;
8183;SDS011;4133;48.752;9.088;2024-01-15T05:31:53;6.57;;;1.87;;
8183;SDS011;4133;48.752;9.088;2024-01-15T05:34:19;3.17;;;2.03;;
8183;SDS011;4133;48.752;9.088;2024-01-15T05:36:45;3.73;;;2.47;;
8183;SDS011;4133;48.752;9.088;2024-01-15T05:39:12;1.93;;;1.40;;
8183;SDS011;4133;48.752;9.088;2024-01-15T05:41:38;3.10;;;1.93;;
8183;SDS011;4133;48.752;9.088;2024-01-15T05:44:04;2.97;;;1.90;;
8183;SDS011;4133;48.752;9.088;2024-01-15T05:46:30;2.17;;;1.57;;
8183;SDS011;4133;48.752;9.088;2024-01-15T05:48:56;3.63;;;2.27;;
8183;SDS011;4133;48.752;9.088;2024-01-15T05:51:22;4.00;;;2.07;;
8183;SDS011;4133;48.752;9.088;2024-01-15T05:53:48;3.30;;;2.23;;
8183;SDS011;4133;48.752;9.088;2024-01-15T05:56:14;6.73;;;2.70;;
8183;SDS011;4133;48.752;9.088;2024-01-15T05:58:40;3.87;;;2.03;;
8183;SDS011;4133;48.752;9.088;2024-01-15T06:01:06;4.43;;;2.03;;
8183;SDS011;4133;48.752;9.088;2024-01-15T06:03:32;5.37;;;2.50;;
8183;SDS011;4133;48.752;9.088;2024-01-15T06:05:58;3.33;;;2.77;;
8183;SDS011;4133;48.752;9.088;2024-01-15T06:08:24;3.80;;;2.23;;
8183;SDS011;4133;48.752;9.088;2024-01-15T06:10:52;2.40;;;2.00;;
8183;SDS011;4133;48.752;9.088;2024-01-15T06:13:19;2.33;;;1.93;;
8183;SDS011;4133;48.752;9.088;2024-01-15T06:15:45;4.63;;;2.53;;
8183;SDS011;4133;48.752;9.088;2024-01-15T06:18:11;4.50;;;2.80;;
8183;SDS011;4133;48.752;9.088;2024-01-15T06:20:37;5.13;;;2.10;;
8183;SDS011;4133;48.752;9.088;2024-01-15T06:23:03;2.33;;;2.07;;
8183;SDS011;4133;48.752;9.088;2024-01-15T06:25:29;2.00;;;1.83;;
8183;SDS011;4133;48.752;9.088;2024-01-15T06:27:55;3.13;;;1.73;;
8183;SDS011;4133;48.752;9.088;2024-01-15T06:30:21;3.90;;;2.17;;
8183;SDS011;4133;48.752;9.088;2024-01-15T06:32:48;6.13;;;2.57;;
8183;SDS011;4133;48.752;9.088;2024-01-15T06:35:15;2.13;;;2.03;;
8183;SDS011;4133;48.752;9.088;2024-01-15T06:37:41;3.70;;;1.83;;
8183;SDS011;4133;48.752;9.088;2024-01-15T06:40:07;1.67;;;1.57;;
8183;SDS011;4133;48.752;9.088;2024-01-15T06:42:33;3.37;;;2.27;;
8183;SDS011;4133;48.752;9.088;2024-01-15T06:44:59;4.33;;;1.60;;
8183;SDS011;4133;48.752;9.088;2024-01-15T06:47:25;6.43;;;2.43;;
8183;SDS011;4133;48.752;9.088;2024-01-15T06:49:51;3.43;;;2.13;;
8183;SDS011;4133;48.752;9.088;2024-01-15T06:52:17;2.80;;;2.17;;
8183;SDS011;4133;48.752;9.088;2024-01-15T06:54:43;4.43;;;2.90;;
8183;SDS011;4133;48.752;9.088;2024-01-15T06:57:10;4.83;;;2.33;;
8183;SDS011;4133;48.752;9.088;2024-01-15T06:59:36;2.20;;;1.93;;
8183;SDS011;4133;48.752;9.088;2024-01-15T07:02:02;5.47;;;2.60;;
8183;SDS011;4133;48.752;9.088;2024-01-15T07:04:28;4.40;;;2.00;;
8183;SDS011;4133;48.752;9.088;2024-01-15T07:06:54;2.93;;;2.23;;
8183;SDS011;4133;48.752;9.088;2024-01-15T07:09:20;1.80;;;1.70;;
8183;SDS011;4133;48.752;9.088;2024-01-15T07:11:46;8.23;;;2.20;;
8183;SDS011;4133;48.752;9.088;2024-01-15T07:14:12;3.23;;;2.50;;
8183;SDS011;4133;48.752;9.088;2024-01-15T07:16:39;2.33;;;1.73;;
8183;SDS011;4133;48.752;9.088;2024-01-15T07:19:05;3.03;;;1.80;;
8183;SDS011;4133;48.752;9.088;2024-01-15T07:21:31;2.57;;;2.37;;
8183;SDS011;4133;48.752;9.088;2024-01-15T07:23:57;2.27;;;1.90;;
8183;SDS011;4133;48.752;9.088;2024-01-15T07:26:23;3.07;;;2.67;;
8183;SDS011;4133;48.752;9.088;2024-01-15T07:28:50;2.37;;;2.17;;
8183;SDS011;4133;48.752;9.088;2024-01-15T07:31:17;4.13;;;2.53;;
8183;SDS011;4133;48.752;9.088;2024-01-15T07:33:43;4.70;;;1.87;;
8183;SDS011;4133;48.752;9.088;2024-01-15T07:36:09;3.40;;;1.73;;
8183;SDS011;4133;48.752;9.088;2024-01-15T07:38:35;1.93;;;1.73;;
8183;SDS011;4133;48.752;9.088;2024-01-15T07:41:01;2.67;;;1.73;;
8183;SDS011;4133;48.752;9.088;2024-01-15T07:43:27;4.63;;;2.13;;
8183;SDS011;4133;48.752;9.088;2024-01-15T07:45:53;4.13;;;2.10;;
8183;SDS011;4133;48.752;9.088;2024-01-15T07:48:19;7.70;;;1.73;;
8183;SDS011;4133;48.752;9.088;2024-01-15T07:50:45;3.20;;;1.90;;
8183;SDS011;4133;48.752;9.088;2024-01-15T07:53:11;2.60;;;2.10;;
8183;SDS011;4133;48.752;9.088;2024-01-15T07:55:37;4.70;;;2.43;;
8183;SDS011;4133;48.752;9.088;2024-01-15T07:58:03;4.60;;;2.83;;
8183;SDS011;4133;48.752;9.088;2024-01-15T08:00:29;7.67;;;2.67;;
8183;SDS011;4133;48.752;9.088;2024-01-15T08:02:55;2.30;;;1.77;;
8183;SDS011;4133;48.752;9.088;2024-01-15T08:05:21;2.93;;;2.10;;
8183;SDS011;4133;48.752;9.088;2024-01-15T08:07:48;4.17;;;2.43;;
8183;SDS011;4133;48.752;9.088;2024-01-15T08:10:14;2.47;;;1.87;;
8183;SDS011;4133;48.752;9.088;2024-01-15T08:12:40;3.27;;;1.80;;
8183;SDS011;4133;48.752;9.088;2024-01-15T08:15:06;5.43;;;2.43;;
8183;SDS011;4133;48.752;9.088;2024-01-15T08:17:33;3.60;;;2.60;;
8183;SDS011;4133;48.752;9.088;2024-01-15T08:19:59;1.70;;;1.60;;
8183;SDS011;4133;48.752;9.088;2024-01-15T08:22:26;2.90;;;2.60;;
8183;SDS011;4133;48.752;9.088;2024-01-15T08:24:52;3.60;;;1.87;;
8183;SDS011;4133;48.752;9.088;2024-01-15T08:27:20;2.53;;;2.00;;
8183;SDS011;4133;48.752;9.088;2024-01-15T08:29:46;2.17;;;1.83;;
8183;SDS011;4133;48.752;9.088;2024-01-15T08:32:12;6.43;;;3.60;;
8183;SDS011;4133;48.752;9.088;2024-01-15T08:34:40;4.57;;;2.50;;
8183;SDS011;4133;48.752;9.088;2024-01-15T08:37:06;3.47;;;2.37;;
8183;SDS011;4133;48.752;9.088;2024-01-15T08:39:32;1.80;;;1.43;;
8183;SDS011;4133;48.752;9.088;2024-01-15T08:41:58;2.37;;;1.40;;
8183;SDS011;4133;48.752;9.088;2024-01-15T08:44:24;1.77;;;1.10;;
8183;SDS011;4133;48.752;9.088;2024-01-15T08:46:50;3.10;;;2.23;;
8183;SDS011;4133;48.752;9.088;2024-01-15T08:49:16;2.27;;;1.30;;
8183;SDS011;4133;48.752;9.088;2024-01-15T08:51:42;4.30;;;2.37;;
8183;SDS011;4133;48.752;9.088;2024-01-15T08:54:09;3.53;;;1.80;;
8183;SDS011;4133;48.752;9.088;2024-01-15T08:56:35;2.13;;;1.33;;
8183;SDS011;4133;48.752;9.088;2024-01-15T08:59:01;2.43;;;1.77;;
8183;SDS011;4133;48.752;9.088;2024-01-15T09:01:27;1.40;;;1.23;;
8183;SDS011;4133;48.752;9.088;2024-01-15T09:03:53;2.37;;;1.50;;
8183;SDS011;4133;48.752;9.088;2024-01-15T09:06:19;3.03;;;1.90;;
8183;SDS011;4133;48.752;9.088;2024-01-15T09:08:45;2.50;;;1.80;;
8183;SDS011;4133;48.752;9.088;2024-01-15T09:11:11;2.57;;;2.07;;
8183;SDS011;4133;48.752;9.088;2024-01-15T09:13:37;3.13;;;1.90;;
8183;SDS011;4133;48.752;9.088;2024-01-15T09:16:03;1.50;;;1.40;;
8183;SDS011;4133;48.752;9.088;2024-01-15T09:18:29;1.37;;;1.27;;
8183;SDS011;4133;48.752;9.088;2024-01-15T09:20:56;3.53;;;1.77;;
8183;SDS011;4133;48.752;9.088;2024-01-15T09:23:22;1.43;;;1.33;;
8183;SDS011;4133;48.752;9.088;2024-01-15T09:25:48;1.50;;;1.40;;
8183;SDS011;4133;48.752;9.088;2024-01-15T09:28:14;3.20;;;1.30;;
8183;SDS011;4133;48.752;9.088;2024-01-15T09:30:40;1.17;;;1.10;;
8183;SDS011;4133;48.752;9.088;2024-01-15T09:33:06;2.13;;;1.63;;
8183;SDS011;4133;48.752;9.088;2024-01-15T09:35:32;1.00;;;1.00;;
8183;SDS011;4133;48.752;9.088;2024-01-15T09:37:59;1.77;;;1.33;;
8183;SDS011;4133;48.752;9.088;2024-01-15T09:40:25;2.67;;;1.37;;
8183;SDS011;4133;48.752;9.088;2024-01-15T09:42:55;1.10;;;1.00;;
8183;SDS011;4133;48.752;9.088;2024-01-15T09:45:21;1.77;;;1.40;;
8183;SDS011;4133;48.752;9.088;2024-01-15T09:47:47;1.70;;;1.47;;
8183;SDS011;4133;48.752;9.088;2024-01-15T09:50:14;1.10;;;1.10;;
8183;SDS011;4133;48.752;9.088;2024-01-15T09:52:40;5.77;;;1.60;;
8183;SDS011;4133;48.752;9.088;2024-01-15T09:55:06;1.30;;;1.20;;
8183;SDS011;4133;48.752;9.088;2024-01-15T09:57:34;2.10;;;1.80;;
8183;SDS011;4133;48.752;9.088;2024-01-15T10:00:01;1.10;;;1.10;;
8183;SDS011;4133;48.752;9.088;2024-01-15T10:02:31;1.63;;;1.43;;
8183;SDS011;4133;48.752;9.088;2024-01-15T10:04:58;1.80;;;1.70;;
8183;SDS011;4133;48.752;9.088;2024-01-15T10:07:24;2.10;;;1.50;;
8183;SDS011;4133;48.752;9.088;2024-01-15T10:09:51;1.50;;;1.40;;
8183;SDS011;4133;48.752;9.088;2024-01-15T10:12:17;2.10;;;1.50;;
8183;SDS011;4133;48.752;9.088;2024-01-15T10:14:43;2.03;;;1.30;;
8183;SDS011;4133;48.752;9.088;2024-01-15T10:17:16;2.77;;;1.87;;
8183;SDS011;4133;48.752;9.088;2024-01-15T10:19:42;2.80;;;1.67;;
8183;SDS011;4133;48.752;9.088;2024-01-15T10:22:09;2.53;;;1.67;;
8183;SDS011;4133;48.752;9.088;2024-01-15T10:24:36;2.47;;;1.23;;
8183;SDS011;4133;48.752;9.088;2024-01-15T10:27:04;1.70;;;1.30;;
8183;SDS011;4133;48.752;9.088;2024-01-15T10:29:31;2.03;;;1.63;;
8183;SDS011;4133;48.752;9.088;2024-01-15T10:31:58;1.30;;;0.93;;
8183;SDS011;4133;48.752;9.088;2024-01-15T10:34:25;1.90;;;1.50;;
8183;SDS011;4133;48.752;9.088;2024-01-15T10:36:51;1.70;;;1.60;;
8183;SDS011;4133;48.752;9.088;2024-01-15T10:39:23;2.33;;;1.60;;
8183;SDS011;4133;48.752;9.088;2024-01-15T10:41:49;2.00;;;1.20;;
8183;SDS011;4133;48.752;9.088;2024-01-15T10:44:18;3.60;;;1.40;;
8183;SDS011;4133;48.752;9.088;2024-01-15T10:46:44;2.13;;;1.80;;
8183;SDS011;4133;48.752;9.088;2024-01-15T10:49:11;2.00;;;1.60;;
8183;SDS011;4133;48.752;9.088;2024-01-15T10:51:38;1.37;;;1.20;;
8183;SDS011;4133;48.752;9.088;2024-01-15T10:54:04;2.17;;;1.20;;
8183;SDS011;4133;48.752;9.088;2024-01-15T10:56:31;1.60;;;1.50;;
8183;SDS011;4133;48.752;9.088;2024-01-15T10:58:58;1.70;;;1.60;;
8183;SDS011;4133;48.752;9.088;2024-01-15T11:01:25;1.97;;;1.50;;
8183;SDS011;4133;48.752;9.088;2024-01-15T11:03:51;1.40;;;1.23;;
8183;SDS011;4133;48.752;9.088;2024-01-15T11:06:17;1.53;;;1.27;;
8183;SDS011;4133;48.752;9.088;2024-01-15T11:08:49;2.80;;;1.77;;
8183;SDS011;4133;48.752;9.088;2024-01-15T11:11:21;1.43;;;1.33;;
8183;SDS011;4133;48.752;9.088;2024-01-15T11:13:48;1.70;;;1.57;;
8183;SDS011;4133;48.752;9.088;2024-01-15T11:16:16;1.43;;;1.33;;
8183;SDS011;4133;48.752;9.088;2024-01-15T11:18:43;2.27;;;1.20;;
8183;SDS011;4133;48.752;9.088;2024-01-15T11:23:42;2.37;;;1.23;;
8183;SDS011;4133;48.752;9.088;2024-01-15T11:28:57;2.97;;;1.70;;
8183;SDS011;4133;48.752;9.088;2024-01-15T11:31:29;4.03;;;2.30;;
8183;SDS011;4133;48.752;9.088;2024-01-15T11:33:55;2.20;;;1.77;;
8183;SDS011;4133;48.752;9.088;2024-01-15T11:37:00;1.97;;;1.67;;
8183;SDS011;4133;48.752;9.088;2024-01-15T11:39:39;2.97;;;1.63;;
8183;SDS011;4133;48.752;9.088;2024-01-15T11:41:58;2.17;;;1.50;;
8183;SDS011;4133;48.752;9.088;2024-01-15T11:44:25;2.43;;;1.90;;
8183;SDS011;4133;48.752;9.088;2024-01-15T11:49:26;1.57;;;1.20;;
8183;SDS011;4133;48.752;9.088;2024-01-15T11:51:55;4.43;;;1.60;;
8183;SDS011;4133;48.752;9.088;2024-01-15T11:54:23;2.00;;;1.30;;
8183;SDS011;4133;48.752;9.088;2024-01-15T11:56:49;1.30;;;1.20;;
8183;SDS011;4133;48.752;9.088;2024-01-15T11:59:16;2.10;;;1.23;;
8183;SDS011;4133;48.752;9.088;2024-01-15T12:01:42;2.50;;;1.50;;
8183;SDS011;4133;48.752;9.088;2024-01-15T12:04:08;4.37;;;1.70;;
8183;SDS011;4133;48.752;9.088;2024-01-15T12:06:34;3.00;;;1.63;;
8183;SDS011;4133;48.752;9.088;2024-01-15T12:09:09;2.30;;;1.60;;
8183;SDS011;4133;48.752;9.088;2024-01-15T12:11:36;2.03;;;1.87;;
8183;SDS011;4133;48.752;9.088;2024-01-15T12:14:03;2.07;;;1.90;;
8183;SDS011;4133;48.752;9.088;2024-01-15T12:16:29;1.40;;;1.30;;
8183;SDS011;4133;48.752;9.088;2024-01-15T12:18:55;3.07;;;1.73;;
8183;SDS011;4133;48.752;9.088;2024-01-15T12:21:21;5.53;;;1.70;;
8183;SDS011;4133;48.752;9.088;2024-01-15T12:23:48;3.23;;;1.70;;
8183;SDS011;4133;48.752;9.088;2024-01-15T12:26:14;1.33;;;1.20;;
8183;SDS011;4133;48.752;9.088;2024-01-15T12:28:40;1.77;;;1.67;;
8183;SDS011;4133;48.752;9.088;2024-01-15T12:31:06;1.73;;;1.50;;
8183;SDS011;4133;48.752;9.088;2024-01-15T12:33:33;2.03;;;1.83;;
8183;SDS011;4133;48.752;9.088;2024-01-15T12:35:59;2.20;;;1.27;;
8183;SDS011;4133;48.752;9.088;2024-01-15T12:38:25;2.70;;;1.60;;
8183;SDS011;4133;48.752;9.088;2024-01-15T12:40:51;2.03;;;1.47;;
8183;SDS011;4133;48.752;9.088;2024-01-15T12:43:17;4.17;;;2.03;;
8183;SDS011;4133;48.752;9.088;2024-01-15T12:45:43;1.77;;;1.60;;
8183;SDS011;4133;48.752;9.088;2024-01-15T12:48:09;2.70;;;1.70;;
8183;SDS011;4133;48.752;9.088;2024-01-15T12:50:35;2.27;;;1.73;;
8183;SDS011;4133;48.752;9.088;2024-01-15T12:53:02;1.50;;;1.40;;
8183;SDS011;4133;48.752;9.088;2024-01-15T12:55:27;1.70;;;1.60;;
8183;SDS011;4133;48.752;9.088;2024-01-15T12:57:53;2.17;;;1.40;;
8183;SDS011;4133;48.752;9.088;2024-01-15T13:00:20;1.23;;;1.20;;
8183;SDS011;4133;48.752;9.088;2024-01-15T13:02:46;1.53;;;1.43;;
8183;SDS011;4133;48.752;9.088;2024-01-15T13:05:12;2.97;;;1.43;;
8183;SDS011;4133;48.752;9.088;2024-01-15T13:07:38;1.53;;;0.90;;
8183;SDS011;4133;48.752;9.088;2024-01-15T13:10:05;1.20;;;1.20;;
8183;SDS011;4133;48.752;9.088;2024-01-15T13:12:31;0.97;;;0.97;;
8183;SDS011;4133;48.752;9.088;2024-01-15T13:14:58;1.20;;;1.10;;
8183;SDS011;4133;48.752;9.088;2024-01-15T13:17:27;1.60;;;1.53;;
8183;SDS011;4133;48.752;9.088;2024-01-15T13:19:53;2.50;;;1.50;;
8183;SDS011;4133;48.752;9.088;2024-01-15T13:22:19;3.85;;;2.13;;
8183;SDS011;4133;48.752;9.088;2024-01-15T13:24:45;2.40;;;1.50;;
8183;SDS011;4133;48.752;9.088;2024-01-15T13:27:12;1.27;;;1.20;;
8183;SDS011;4133;48.752;9.088;2024-01-15T13:29:38;1.77;;;1.33;;
8183;SDS011;4133;48.752;9.088;2024-01-15T13:32:04;1.47;;;1.37;;
8183;SDS011;4133;48.752;9.088;2024-01-15T13:34:30;1.73;;;1.33;;
8183;SDS011;4133;48.752;9.088;2024-01-15T13:36:56;1.30;;;1.20;;
8183;SDS011;4133;48.752;9.088;2024-01-15T13:39:22;1.93;;;1.77;;
8183;SDS011;4133;48.752;9.088;2024-01-15T13:41:48;3.70;;;2.30;;
8183;SDS011;4133;48.752;9.088;2024-01-15T13:44:14;1.97;;;1.70;;
8183;SDS011;4133;48.752;9.088;2024-01-15T13:46:41;3.23;;;1.40;;
8183;SDS011;4133;48.752;9.088;2024-01-15T13:49:06;1.93;;;1.73;;
8183;SDS011;4133;48.752;9.088;2024-01-15T13:51:34;2.00;;;1.40;;
8183;SDS011;4133;48.752;9.088;2024-01-15T13:54:01;3.00;;;1.60;;
8183;SDS011;4133;48.752;9.088;2024-01-15T13:56:29;1.50;;;1.40;;
8183;SDS011;4133;48.752;9.088;2024-01-15T13:58:57;1.77;;;1.30;;
8183;SDS011;4133;48.752;9.088;2024-01-15T14:01:24;1.53;;;1.43;;
8183;SDS011;4133;48.752;9.088;2024-01-15T14:03:50;1.63;;;1.37;;
8183;SDS011;4133;48.752;9.088;2024-01-15T14:06:16;4.07;;;1.37;;
8183;SDS011;4133;48.752;9.088;2024-01-15T14:08:42;1.40;;;1.30;;
8183;SDS011;4133;48.752;9.088;2024-01-15T14:11:08;1.73;;;1.07;;
8183;SDS011;4133;48.752;9.088;2024-01-15T14:13:35;2.27;;;1.63;;
8183;SDS011;4133;48.752;9.088;2024-01-15T14:16:01;0.93;;;0.83;;
8183;SDS011;4133;48.752;9.088;2024-01-15T14:18:27;0.97;;;0.93;;
8183;SDS011;4133;48.752;9.088;2024-01-15T14:20:53;1.10;;;1.10;;
8183;SDS011;4133;48.752;9.088;2024-01-15T14:23:20;1.13;;;1.07;;
8183;SDS011;4133;48.752;9.088;2024-01-15T14:25:46;0.80;;;0.80;;
8183;SDS011;4133;48.752;9.088;2024-01-15T14:28:12;1.20;;;1.10;;
8183;SDS011;4133;48.752;9.088;2024-01-15T14:30:38;0.97;;;0.90;;
8183;SDS011;4133;48.752;9.088;2024-01-15T14:33:04;1.10;;;1.00;;
8183;SDS011;4133;48.752;9.088;2024-01-15T14:35:30;1.67;;;1.50;;
8183;SDS011;4133;48.752;9.088;2024-01-15T14:37:56;1.50;;;1.40;;
8183;SDS011;4133;48.752;9.088;2024-01-15T14:40:25;1.87;;;1.20;;
8183;SDS011;4133;48.752;9.088;2024-01-15T14:42:51;0.87;;;0.87;;
8183;SDS011;4133;48.752;9.088;2024-01-15T14:45:17;1.40;;;1.27;;
8183;SDS011;4133;48.752;9.088;2024-01-15T14:47:43;1.85;;;1.70;;
8183;SDS011;4133;48.752;9.088;2024-01-15T14:50:09;1.33;;;1.20;;
8183;SDS011;4133;48.752;9.088;2024-01-15T14:52:36;1.60;;;1.47;;
8183;SDS011;4133;48.752;9.088;2024-01-15T14:55:02;4.43;;;2.00;;
8183;SDS011;4133;48.752;9.088;2024-01-15T14:57:29;1.87;;;1.60;;
8183;SDS011;4133;48.752;9.088;2024-01-15T14:59:55;1.53;;;1.43;;
8183;SDS011;4133;48.752;9.088;2024-01-15T15:02:21;1.73;;;1.10;;
8183;SDS011;4133;48.752;9.088;2024-01-15T15:04:47;1.10;;;1.00;;
8183;SDS011;4133;48.752;9.088;2024-01-15T15:07:13;1.10;;;1.00;;
8183;SDS011;4133;48.752;9.088;2024-01-15T15:09:39;2.23;;;1.53;;
8183;SDS011;4133;48.752;9.088;2024-01-15T15:12:05;1.33;;;1.23;;
8183;SDS011;4133;48.752;9.088;2024-01-15T15:14:32;3.08;;;2.50;;
8183;SDS011;4133;48.752;9.088;2024-01-15T15:17:03;2.80;;;1.70;;